sensor_id;sensor_type;location;lat;lon;timestamp;P1;durP1;ratioP1;P2;durP2;ratioP2
11990;SDS011;6055;52.522;13.446;2022-07-04T00:02:13;3.00;;;2.40;;
11990;SDS011;6055;52.522;13.446;2022-07-04T00:04:38;2.92;;;2.50;;
11990;SDS011;6055;52.522;13.446;2022-07-04T00:07:04;2.95;;;2.63;;
11990;SDS011;6055;52.522;13.446;2022-07-04T00:09:30;3.40;;;2.65;;
11990;SDS011;6055;52.522;13.446;2022-07-04T00:11:56;2.90;;;2.65;;
11990;SDS011;6055;52.522;13.446;2022-07-04T00:14:21;2.92;;;2.50;;
11990;SDS011;6055;52.522;13.446;2022-07-04T00:16:47;4.25;;;2.53;;
11990;SDS011;6055;52.522;13.446;2022-07-04T00:19:12;2.88;;;2.38;;
11990;SDS011;6055;52.522;13.446;2022-07-04T00:21:38;2.42;;;2.22;;
11990;SDS011;6055;52.522;13.446;2022-07-04T00:24:03;2.65;;;2.45;;
11990;SDS011;6055;52.522;13.446;2022-07-04T00:26:29;4.70;;;2.45;;
11990;SDS011;6055;52.522;13.446;2022-07-04T00:28:55;2.20;;;2.00;;
11990;SDS011;6055;52.522;13.446;2022-07-04T00:31:20;3.17;;;2.28;;
11990;SDS011;6055;52.522;13.446;2022-07-04T00:33:46;2.60;;;2.40;;
11990;SDS011;6055;52.522;13.446;2022-07-04T00:36:11;3.50;;;3.20;;
11990;SDS011;6055;52.522;13.446;2022-07-04T00:38:37;3.53;;;2.80;;
11990;SDS011;6055;52.522;13.446;2022-07-04T00:41:02;2.35;;;2.17;;
11990;SDS011;6055;52.522;13.446;2022-07-04T00:43:28;2.47;;;2.28;;
11990;SDS011;6055;52.522;13.446;2022-07-04T00:45:54;2.30;;;2.15;;
11990;SDS011;6055;52.522;13.446;2022-07-04T00:48:20;2.50;;;2.30;;
11990;SDS011;6055;52.522;13.446;2022-07-04T00:50:46;4.20;;;2.35;;
11990;SDS011;6055;52.522;13.446;2022-07-04T00:53:14;2.53;;;2.33;;
11990;SDS011;6055;52.522;13.446;2022-07-04T00:55:40;2.60;;;2.40;;
11990;SDS011;6055;52.522;13.446;2022-07-04T00:58:06;2.63;;;2.42;;
11990;SDS011;6055;52.522;13.446;2022-07-04T01:00:32;2.55;;;2.35;;
11990;SDS011;6055;52.522;13.446;2022-07-04T01:02:57;2.20;;;2.00;;
11990;SDS011;6055;52.522;13.446;2022-07-04T01:05:23;2.50;;;2.30;;
11990;SDS011;6055;52.522;13.446;2022-07-04T01:07:49;2.35;;;2.15;;
11990;SDS011;6055;52.522;13.446;2022-07-04T01:10:15;2.30;;;2.10;;
11990;SDS011;6055;52.522;13.446;2022-07-04T01:12:41;2.20;;;2.00;;
11990;SDS011;6055;52.522;13.446;2022-07-04T01:15:07;2.30;;;2.10;;
11990;SDS011;6055;52.522;13.446;2022-07-04T01:17:33;2.83;;;2.25;;
11990;SDS011;6055;52.522;13.446;2022-07-04T01:19:59;2.83;;;2.35;;
11990;SDS011;6055;52.522;13.446;2022-07-04T01:22:24;2.40;;;2.20;;
11990;SDS011;6055;52.522;13.446;2022-07-04T01:24:50;2.63;;;2.30;;
11990;SDS011;6055;52.522;13.446;2022-07-04T01:27:15;2.90;;;2.13;;
11990;SDS011;6055;52.522;13.446;2022-07-04T01:29:41;3.22;;;2.30;;
11990;SDS011;6055;52.522;13.446;2022-07-04T01:32:07;2.38;;;2.17;;
11990;SDS011;6055;52.522;13.446;2022-07-04T01:34:34;2.63;;;2.38;;
11990;SDS011;6055;52.522;13.446;2022-07-04T01:37:00;2.75;;;2.22;;
11990;SDS011;6055;52.522;13.446;2022-07-04T01:39:28;3.15;;;2.20;;
11990;SDS011;6055;52.522;13.446;2022-07-04T01:41:54;2.60;;;1.98;;
11990;SDS011;6055;52.522;13.446;2022-07-04T01:44:20;2.30;;;2.10;;
11990;SDS011;6055;52.522;13.446;2022-07-04T01:46:45;2.58;;;2.38;;
11990;SDS011;6055;52.522;13.446;2022-07-04T01:49:11;2.42;;;2.22;;
11990;SDS011;6055;52.522;13.446;2022-07-04T01:51:43;2.38;;;2.22;;
11990;SDS011;6055;52.522;13.446;2022-07-04T01:54:12;2.70;;;2.50;;
11990;SDS011;6055;52.522;13.446;2022-07-04T01:56:41;2.50;;;2.30;;
11990;SDS011;6055;52.522;13.446;2022-07-04T01:59:08;3.40;;;2.45;;
11990;SDS011;6055;52.522;13.446;2022-07-04T02:01:34;3.22;;;2.50;;
11990;SDS011;6055;52.522;13.446;2022-07-04T02:04:00;2.80;;;2.58;;
11990;SDS011;6055;52.522;13.446;2022-07-04T02:06:28;3.00;;;2.70;;
11990;SDS011;6055;52.522;13.446;2022-07-04T02:08:54;2.60;;;2.40;;
11990;SDS011;6055;52.522;13.446;2022-07-04T02:11:39;2.75;;;2.55;;
11990;SDS011;6055;52.522;13.446;2022-07-04T02:14:23;2.97;;;2.67;;
11990;SDS011;6055;52.522;13.446;2022-07-04T02:16:49;6.30;;;2.92;;
11990;SDS011;6055;52.522;13.446;2022-07-04T02:19:15;3.30;;;3.00;;
11990;SDS011;6055;52.522;13.446;2022-07-04T02:21:40;5.22;;;3.05;;
11990;SDS011;6055;52.522;13.446;2022-07-04T02:24:06;3.47;;;3.17;;
11990;SDS011;6055;52.522;13.446;2022-07-04T02:26:31;3.40;;;3.08;;
11990;SDS011;6055;52.522;13.446;2022-07-04T02:28:57;4.55;;;3.60;;
11990;SDS011;6055;52.522;13.446;2022-07-04T02:31:22;4.88;;;4.15;;
11990;SDS011;6055;52.522;13.446;2022-07-04T02:33:48;4.63;;;3.70;;
11990;SDS011;6055;52.522;13.446;2022-07-04T02:36:13;5.00;;;4.32;;
11990;SDS011;6055;52.522;13.446;2022-07-04T02:38:39;4.95;;;4.28;;
11990;SDS011;6055;52.522;13.446;2022-07-04T02:41:04;5.97;;;4.45;;
11990;SDS011;6055;52.522;13.446;2022-07-04T02:43:30;4.80;;;4.32;;
11990;SDS011;6055;52.522;13.446;2022-07-04T02:45:56;5.75;;;5.15;;
11990;SDS011;6055;52.522;13.446;2022-07-04T02:48:21;5.03;;;4.63;;
11990;SDS011;6055;52.522;13.446;2022-07-04T02:50:47;5.68;;;5.00;;
11990;SDS011;6055;52.522;13.446;2022-07-04T02:53:12;6.35;;;4.70;;
11990;SDS011;6055;52.522;13.446;2022-07-04T02:55:38;5.90;;;5.30;;
11990;SDS011;6055;52.522;13.446;2022-07-04T02:58:03;7.18;;;4.65;;
11990;SDS011;6055;52.522;13.446;2022-07-04T03:00:29;6.32;;;4.88;;
11990;SDS011;6055;52.522;13.446;2022-07-04T03:02:54;5.50;;;5.00;;
11990;SDS011;6055;52.522;13.446;2022-07-04T03:05:20;7.28;;;5.40;;
11990;SDS011;6055;52.522;13.446;2022-07-04T03:07:45;6.00;;;5.40;;
11990;SDS011;6055;52.522;13.446;2022-07-04T03:10:11;5.50;;;4.90;;
11990;SDS011;6055;52.522;13.446;2022-07-04T03:12:37;6.10;;;5.00;;
11990;SDS011;6055;52.522;13.446;2022-07-04T03:15:02;5.53;;;5.03;;
11990;SDS011;6055;52.522;13.446;2022-07-04T03:17:28;8.30;;;5.55;;
11990;SDS011;6055;52.522;13.446;2022-07-04T03:19:55;6.75;;;6.05;;
11990;SDS011;6055;52.522;13.446;2022-07-04T03:22:21;6.45;;;5.75;;
11990;SDS011;6055;52.522;13.446;2022-07-04T03:24:46;6.05;;;5.45;;
11990;SDS011;6055;52.522;13.446;2022-07-04T03:27:12;5.50;;;5.00;;
11990;SDS011;6055;52.522;13.446;2022-07-04T03:29:37;6.75;;;5.82;;
11990;SDS011;6055;52.522;13.446;2022-07-04T03:32:03;6.15;;;5.50;;
11990;SDS011;6055;52.522;13.446;2022-07-04T03:34:29;6.38;;;5.57;;
11990;SDS011;6055;52.522;13.446;2022-07-04T03:36:55;6.70;;;5.97;;
11990;SDS011;6055;52.522;13.446;2022-07-04T03:39:20;7.68;;;5.88;;
11990;SDS011;6055;52.522;13.446;2022-07-04T03:41:46;6.88;;;6.18;;
11990;SDS011;6055;52.522;13.446;2022-07-04T03:44:12;6.20;;;5.60;;
11990;SDS011;6055;52.522;13.446;2022-07-04T03:46:38;6.60;;;5.60;;
11990;SDS011;6055;52.522;13.446;2022-07-04T03:49:03;6.13;;;5.53;;
11990;SDS011;6055;52.522;13.446;2022-07-04T03:51:29;7.80;;;6.32;;
11990;SDS011;6055;52.522;13.446;2022-07-04T03:53:54;6.13;;;5.53;;
11990;SDS011;6055;52.522;13.446;2022-07-04T03:56:20;7.05;;;6.13;;
11990;SDS011;6055;52.522;13.446;2022-07-04T03:58:45;6.13;;;5.55;;
11990;SDS011;6055;52.522;13.446;2022-07-04T04:01:14;6.78;;;4.68;;
11990;SDS011;6055;52.522;13.446;2022-07-04T04:03:41;6.38;;;5.72;;
11990;SDS011;6055;52.522;13.446;2022-07-04T04:06:25;7.28;;;6.30;;
11990;SDS011;6055;52.522;13.446;2022-07-04T04:08:50;7.38;;;6.20;;
11990;SDS011;6055;52.522;13.446;2022-07-04T04:11:16;7.75;;;6.05;;
11990;SDS011;6055;52.522;13.446;2022-07-04T04:13:41;7.07;;;6.18;;
11990;SDS011;6055;52.522;13.446;2022-07-04T04:16:07;7.47;;;6.20;;
11990;SDS011;6055;52.522;13.446;2022-07-04T04:18:32;8.00;;;6.45;;
11990;SDS011;6055;52.522;13.446;2022-07-04T04:20:58;7.68;;;6.45;;
11990;SDS011;6055;52.522;13.446;2022-07-04T04:23:24;9.60;;;6.20;;
11990;SDS011;6055;52.522;13.446;2022-07-04T04:25:49;8.20;;;6.53;;
11990;SDS011;6055;52.522;13.446;2022-07-04T04:28:15;7.05;;;5.72;;
11990;SDS011;6055;52.522;13.446;2022-07-04T04:30:40;6.63;;;5.95;;
11990;SDS011;6055;52.522;13.446;2022-07-04T04:33:06;5.85;;;5.32;;
11990;SDS011;6055;52.522;13.446;2022-07-04T04:35:31;6.70;;;6.05;;
11990;SDS011;6055;52.522;13.446;2022-07-04T04:37:57;8.55;;;5.32;;
11990;SDS011;6055;52.522;13.446;2022-07-04T04:40:23;6.63;;;5.13;;
11990;SDS011;6055;52.522;13.446;2022-07-04T04:42:48;5.97;;;5.40;;
11990;SDS011;6055;52.522;13.446;2022-07-04T04:45:14;7.22;;;6.45;;
11990;SDS011;6055;52.522;13.446;2022-07-04T04:47:39;9.88;;;6.03;;
11990;SDS011;6055;52.522;13.446;2022-07-04T04:50:06;8.88;;;5.90;;
11990;SDS011;6055;52.522;13.446;2022-07-04T04:52:36;9.50;;;6.05;;
11990;SDS011;6055;52.522;13.446;2022-07-04T04:55:02;7.50;;;5.93;;
11990;SDS011;6055;52.522;13.446;2022-07-04T04:57:28;8.02;;;5.50;;
11990;SDS011;6055;52.522;13.446;2022-07-04T04:59:54;8.23;;;5.25;;
11990;SDS011;6055;52.522;13.446;2022-07-04T05:02:19;7.13;;;5.90;;
11990;SDS011;6055;52.522;13.446;2022-07-04T05:04:45;8.65;;;5.65;;
11990;SDS011;6055;52.522;13.446;2022-07-04T05:07:11;7.55;;;5.95;;
11990;SDS011;6055;52.522;13.446;2022-07-04T05:09:36;6.57;;;5.13;;
11990;SDS011;6055;52.522;13.446;2022-07-04T05:12:02;6.63;;;5.50;;
11990;SDS011;6055;52.522;13.446;2022-07-04T05:14:27;6.10;;;5.35;;
11990;SDS011;6055;52.522;13.446;2022-07-04T05:16:53;7.70;;;6.03;;
11990;SDS011;6055;52.522;13.446;2022-07-04T05:19:19;5.75;;;5.18;;
11990;SDS011;6055;52.522;13.446;2022-07-04T05:21:44;5.88;;;5.35;;
11990;SDS011;6055;52.522;13.446;2022-07-04T05:24:10;6.55;;;5.22;;
11990;SDS011;6055;52.522;13.446;2022-07-04T05:26:36;6.10;;;5.00;;
11990;SDS011;6055;52.522;13.446;2022-07-04T05:29:01;5.65;;;5.15;;
11990;SDS011;6055;52.522;13.446;2022-07-04T05:31:27;5.18;;;4.68;;
11990;SDS011;6055;52.522;13.446;2022-07-04T05:33:53;6.68;;;5.30;;
11990;SDS011;6055;52.522;13.446;2022-07-04T05:36:19;8.15;;;5.10;;
11990;SDS011;6055;52.522;13.446;2022-07-04T05:38:45;5.70;;;5.20;;
11990;SDS011;6055;52.522;13.446;2022-07-04T05:41:11;5.20;;;4.70;;
11990;SDS011;6055;52.522;13.446;2022-07-04T05:43:37;6.85;;;5.20;;
11990;SDS011;6055;52.522;13.446;2022-07-04T05:46:02;4.72;;;4.20;;
11990;SDS011;6055;52.522;13.446;2022-07-04T05:48:28;6.00;;;4.53;;
11990;SDS011;6055;52.522;13.446;2022-07-04T05:50:54;5.15;;;4.10;;
11990;SDS011;6055;52.522;13.446;2022-07-04T05:53:20;6.10;;;3.92;;
11990;SDS011;6055;52.522;13.446;2022-07-04T05:55:45;4.40;;;4.00;;
11990;SDS011;6055;52.522;13.446;2022-07-04T05:58:11;5.93;;;3.72;;
11990;SDS011;6055;52.522;13.446;2022-07-04T06:00:36;3.92;;;3.60;;
11990;SDS011;6055;52.522;13.446;2022-07-04T06:03:04;3.95;;;3.45;;
11990;SDS011;6055;52.522;13.446;2022-07-04T06:05:30;3.75;;;3.38;;
11990;SDS011;6055;52.522;13.446;2022-07-04T06:07:56;3.58;;;3.10;;
11990;SDS011;6055;52.522;13.446;2022-07-04T06:10:21;3.70;;;3.40;;
11990;SDS011;6055;52.522;13.446;2022-07-04T06:12:47;5.07;;;3.38;;
11990;SDS011;6055;52.522;13.446;2022-07-04T06:15:12;4.03;;;3.53;;
11990;SDS011;6055;52.522;13.446;2022-07-04T06:17:38;6.15;;;3.72;;
11990;SDS011;6055;52.522;13.446;2022-07-04T06:20:04;3.60;;;3.30;;
11990;SDS011;6055;52.522;13.446;2022-07-04T06:25:05;3.35;;;3.00;;
11990;SDS011;6055;52.522;13.446;2022-07-04T06:27:31;3.30;;;3.00;;
11990;SDS011;6055;52.522;13.446;2022-07-04T06:29:57;3.45;;;2.92;;
11990;SDS011;6055;52.522;13.446;2022-07-04T06:32:22;2.67;;;1.88;;
11990;SDS011;6055;52.522;13.446;2022-07-04T06:34:48;1.50;;;1.40;;
11990;SDS011;6055;52.522;13.446;2022-07-04T06:37:32;2.42;;;1.75;;
11990;SDS011;6055;52.522;13.446;2022-07-04T06:39:58;1.65;;;1.08;;
11990;SDS011;6055;52.522;13.446;2022-07-04T06:42:23;1.45;;;1.13;;
11990;SDS011;6055;52.522;13.446;2022-07-04T06:44:48;1.45;;;0.90;;
11990;SDS011;6055;52.522;13.446;2022-07-04T06:47:14;1.15;;;0.90;;
11990;SDS011;6055;52.522;13.446;2022-07-04T06:49:39;1.23;;;1.10;;
11990;SDS011;6055;52.522;13.446;2022-07-04T06:52:05;0.80;;;0.80;;
11990;SDS011;6055;52.522;13.446;2022-07-04T06:54:30;0.90;;;0.90;;
11990;SDS011;6055;52.522;13.446;2022-07-04T06:56:56;1.40;;;1.17;;
11990;SDS011;6055;52.522;13.446;2022-07-04T06:59:21;3.88;;;1.30;;
11990;SDS011;6055;52.522;13.446;2022-07-04T07:01:47;1.23;;;1.13;;
11990;SDS011;6055;52.522;13.446;2022-07-04T07:04:12;1.67;;;1.05;;
11990;SDS011;6055;52.522;13.446;2022-07-04T07:06:38;1.40;;;0.85;;
11990;SDS011;6055;52.522;13.446;2022-07-04T07:09:03;2.85;;;1.00;;
11990;SDS011;6055;52.522;13.446;2022-07-04T07:11:29;1.02;;;0.70;;
11990;SDS011;6055;52.522;13.446;2022-07-04T07:13:54;0.80;;;0.80;;
11990;SDS011;6055;52.522;13.446;2022-07-04T07:16:20;1.38;;;0.88;;
11990;SDS011;6055;52.522;13.446;2022-07-04T07:18:45;2.25;;;0.90;;
11990;SDS011;6055;52.522;13.446;2022-07-04T07:21:11;1.75;;;0.90;;
11990;SDS011;6055;52.522;13.446;2022-07-04T07:23:40;1.35;;;0.90;;
11990;SDS011;6055;52.522;13.446;2022-07-04T07:26:06;1.48;;;1.00;;
11990;SDS011;6055;52.522;13.446;2022-07-04T07:28:32;1.58;;;1.10;;
11990;SDS011;6055;52.522;13.446;2022-07-04T07:30:58;1.45;;;0.90;;
11990;SDS011;6055;52.522;13.446;2022-07-04T07:33:25;1.15;;;1.05;;
11990;SDS011;6055;52.522;13.446;2022-07-04T07:35:50;2.00;;;0.88;;
11990;SDS011;6055;52.522;13.446;2022-07-04T07:38:16;1.17;;;0.90;;
11990;SDS011;6055;52.522;13.446;2022-07-04T07:40:41;1.60;;;1.15;;
11990;SDS011;6055;52.522;13.446;2022-07-04T07:43:07;1.23;;;1.10;;
11990;SDS011;6055;52.522;13.446;2022-07-04T07:45:33;4.13;;;0.98;;
11990;SDS011;6055;52.522;13.446;2022-07-04T07:47:59;2.75;;;1.10;;
11990;SDS011;6055;52.522;13.446;2022-07-04T07:50:24;1.33;;;0.95;;
11990;SDS011;6055;52.522;13.446;2022-07-04T07:52:50;1.17;;;1.00;;
11990;SDS011;6055;52.522;13.446;2022-07-04T07:55:16;2.17;;;0.90;;
11990;SDS011;6055;52.522;13.446;2022-07-04T07:57:41;3.42;;;1.17;;
11990;SDS011;6055;52.522;13.446;2022-07-04T08:00:07;1.67;;;0.98;;
11990;SDS011;6055;52.522;13.446;2022-07-04T08:02:33;1.10;;;1.00;;
11990;SDS011;6055;52.522;13.446;2022-07-04T08:05:17;1.00;;;0.90;;
11990;SDS011;6055;52.522;13.446;2022-07-04T08:07:42;0.80;;;0.80;;
11990;SDS011;6055;52.522;13.446;2022-07-04T08:10:08;0.98;;;0.70;;
11990;SDS011;6055;52.522;13.446;2022-07-04T08:12:34;1.33;;;0.80;;
11990;SDS011;6055;52.522;13.446;2022-07-04T08:15:00;2.35;;;1.10;;
11990;SDS011;6055;52.522;13.446;2022-07-04T08:17:26;3.38;;;1.20;;
11990;SDS011;6055;52.522;13.446;2022-07-04T08:19:52;1.15;;;1.00;;
11990;SDS011;6055;52.522;13.446;2022-07-04T08:22:18;1.10;;;1.00;;
11990;SDS011;6055;52.522;13.446;2022-07-04T08:24:43;1.92;;;0.75;;
11990;SDS011;6055;52.522;13.446;2022-07-04T08:27:09;1.00;;;0.85;;
11990;SDS011;6055;52.522;13.446;2022-07-04T08:29:36;2.83;;;1.00;;
11990;SDS011;6055;52.522;13.446;2022-07-04T08:32:01;4.43;;;0.90;;
11990;SDS011;6055;52.522;13.446;2022-07-04T08:34:27;2.50;;;0.80;;
11990;SDS011;6055;52.522;13.446;2022-07-04T08:36:53;0.98;;;0.90;;
11990;SDS011;6055;52.522;13.446;2022-07-04T08:39:18;4.00;;;0.95;;
11990;SDS011;6055;52.522;13.446;2022-07-04T08:41:44;1.55;;;1.13;;
11990;SDS011;6055;52.522;13.446;2022-07-04T08:44:09;1.80;;;0.95;;
11990;SDS011;6055;52.522;13.446;2022-07-04T08:46:38;1.50;;;0.80;;
11990;SDS011;6055;52.522;13.446;2022-07-04T08:49:14;1.45;;;0.80;;
11990;SDS011;6055;52.522;13.446;2022-07-04T08:51:52;1.20;;;0.82;;
11990;SDS011;6055;52.522;13.446;2022-07-04T08:54:31;1.95;;;0.80;;
11990;SDS011;6055;52.522;13.446;2022-07-04T08:57:16;0.82;;;0.80;;
11990;SDS011;6055;52.522;13.446;2022-07-04T09:00:00;3.42;;;1.00;;
11990;SDS011;6055;52.522;13.446;2022-07-04T09:02:29;3.10;;;0.90;;
11990;SDS011;6055;52.522;13.446;2022-07-04T09:04:54;1.02;;;0.77;;
11990;SDS011;6055;52.522;13.446;2022-07-04T09:07:20;1.83;;;0.90;;
11990;SDS011;6055;52.522;13.446;2022-07-04T09:09:46;1.02;;;0.80;;
11990;SDS011;6055;52.522;13.446;2022-07-04T09:12:11;1.10;;;0.85;;
11990;SDS011;6055;52.522;13.446;2022-07-04T09:14:37;3.08;;;0.82;;
11990;SDS011;6055;52.522;13.446;2022-07-04T09:17:04;0.80;;;0.80;;
11990;SDS011;6055;52.522;13.446;2022-07-04T09:19:30;1.38;;;0.95;;
11990;SDS011;6055;52.522;13.446;2022-07-04T09:21:56;2.05;;;0.90;;
11990;SDS011;6055;52.522;13.446;2022-07-04T09:24:45;0.93;;;0.80;;
11990;SDS011;6055;52.522;13.446;2022-07-04T09:27:28;1.95;;;1.08;;
11990;SDS011;6055;52.522;13.446;2022-07-04T09:29:57;1.77;;;1.02;;
11990;SDS011;6055;52.522;13.446;2022-07-04T09:32:42;1.10;;;1.00;;
11990;SDS011;6055;52.522;13.446;2022-07-04T09:35:10;1.25;;;0.95;;
11990;SDS011;6055;52.522;13.446;2022-07-04T09:37:38;1.52;;;1.00;;
11990;SDS011;6055;52.522;13.446;2022-07-04T09:40:07;2.42;;;1.02;;
11990;SDS011;6055;52.522;13.446;2022-07-04T09:42:41;1.98;;;1.20;;
11990;SDS011;6055;52.522;13.446;2022-07-04T09:45:07;1.48;;;1.05;;
11990;SDS011;6055;52.522;13.446;2022-07-04T09:47:35;0.98;;;0.80;;
11990;SDS011;6055;52.522;13.446;2022-07-04T09:50:06;1.10;;;0.90;;
11990;SDS011;6055;52.522;13.446;2022-07-04T09:57:47;1.42;;;0.75;;
11990;SDS011;6055;52.522;13.446;2022-07-04T10:00:21;1.75;;;0.82;;
11990;SDS011;6055;52.522;13.446;2022-07-04T10:02:48;0.80;;;0.80;;
11990;SDS011;6055;52.522;13.446;2022-07-04T10:05:22;1.52;;;1.10;;
11990;SDS011;6055;52.522;13.446;2022-07-04T10:07:50;1.50;;;1.00;;
11990;SDS011;6055;52.522;13.446;2022-07-04T10:12:50;1.08;;;0.98;;
11990;SDS011;6055;52.522;13.446;2022-07-04T10:15:17;1.95;;;1.13;;
11990;SDS011;6055;52.522;13.446;2022-07-04T10:17:43;2.45;;;1.02;;
11990;SDS011;6055;52.522;13.446;2022-07-04T10:20:09;1.15;;;0.90;;
11990;SDS011;6055;52.522;13.446;2022-07-04T10:22:36;1.02;;;0.93;;
11990;SDS011;6055;52.522;13.446;2022-07-04T10:25:03;1.08;;;0.98;;
11990;SDS011;6055;52.522;13.446;2022-07-04T10:27:30;2.17;;;0.90;;
11990;SDS011;6055;52.522;13.446;2022-07-04T10:29:55;1.38;;;0.95;;
11990;SDS011;6055;52.522;13.446;2022-07-04T10:32:22;1.25;;;1.10;;
11990;SDS011;6055;52.522;13.446;2022-07-04T10:34:49;3.00;;;0.93;;
11990;SDS011;6055;52.522;13.446;2022-07-04T10:37:14;1.20;;;1.02;;
11990;SDS011;6055;52.522;13.446;2022-07-04T10:39:41;1.08;;;0.90;;
11990;SDS011;6055;52.522;13.446;2022-07-04T10:42:06;1.10;;;0.80;;
11990;SDS011;6055;52.522;13.446;2022-07-04T10:44:32;2.35;;;0.82;;
11990;SDS011;6055;52.522;13.446;2022-07-04T10:47:06;1.58;;;0.85;;
11990;SDS011;6055;52.522;13.446;2022-07-04T10:49:48;1.45;;;0.90;;
11990;SDS011;6055;52.522;13.446;2022-07-04T10:52:14;0.95;;;0.90;;
11990;SDS011;6055;52.522;13.446;2022-07-04T10:54:40;1.25;;;0.80;;
11990;SDS011;6055;52.522;13.446;2022-07-04T10:57:14;1.60;;;0.90;;
11990;SDS011;6055;52.522;13.446;2022-07-04T10:59:42;4.13;;;1.00;;
11990;SDS011;6055;52.522;13.446;2022-07-04T11:18:13;1.73;;;0.85;;
11990;SDS011;6055;52.522;13.446;2022-07-04T11:20:45;1.80;;;0.93;;
11990;SDS011;6055;52.522;13.446;2022-07-04T11:23:17;1.02;;;0.73;;
11990;SDS011;6055;52.522;13.446;2022-07-04T11:25:45;1.00;;;0.80;;
11990;SDS011;6055;52.522;13.446;2022-07-04T11:30:51;2.00;;;1.02;;
11990;SDS011;6055;52.522;13.446;2022-07-04T11:33:22;2.72;;;1.23;;
11990;SDS011;6055;52.522;13.446;2022-07-04T11:38:44;3.55;;;1.20;;
11990;SDS011;6055;52.522;13.446;2022-07-04T11:41:09;1.92;;;1.15;;
11990;SDS011;6055;52.522;13.446;2022-07-04T11:43:54;1.08;;;0.98;;
11990;SDS011;6055;52.522;13.446;2022-07-04T11:46:38;4.03;;;1.20;;
11990;SDS011;6055;52.522;13.446;2022-07-04T11:49:07;2.28;;;0.90;;
11990;SDS011;6055;52.522;13.446;2022-07-04T11:51:41;1.92;;;0.90;;
11990;SDS011;6055;52.522;13.446;2022-07-04T11:54:07;1.90;;;0.95;;
11990;SDS011;6055;52.522;13.446;2022-07-04T11:56:33;1.40;;;1.20;;
11990;SDS011;6055;52.522;13.446;2022-07-04T11:59:08;0.82;;;0.70;;
11990;SDS011;6055;52.522;13.446;2022-07-04T12:01:38;1.30;;;0.70;;
11990;SDS011;6055;52.522;13.446;2022-07-04T12:04:14;2.65;;;1.00;;
11990;SDS011;6055;52.522;13.446;2022-07-04T12:06:42;0.98;;;0.80;;
11990;SDS011;6055;52.522;13.446;2022-07-04T12:09:08;1.50;;;0.88;;
11990;SDS011;6055;52.522;13.446;2022-07-04T12:14:20;2.22;;;1.10;;
11990;SDS011;6055;52.522;13.446;2022-07-04T12:16:46;1.92;;;0.98;;
11990;SDS011;6055;52.522;13.446;2022-07-04T12:19:12;1.27;;;0.90;;
11990;SDS011;6055;52.522;13.446;2022-07-04T12:21:38;1.85;;;1.10;;
11990;SDS011;6055;52.522;13.446;2022-07-04T12:24:04;3.67;;;1.20;;
11990;SDS011;6055;52.522;13.446;2022-07-04T12:26:30;1.38;;;0.95;;
11990;SDS011;6055;52.522;13.446;2022-07-04T12:28:56;1.38;;;0.88;;
11990;SDS011;6055;52.522;13.446;2022-07-04T12:34:23;1.33;;;0.80;;
11990;SDS011;6055;52.522;13.446;2022-07-04T12:36:49;1.92;;;1.05;;
11990;SDS011;6055;52.522;13.446;2022-07-04T12:39:30;0.95;;;0.90;;
11990;SDS011;6055;52.522;13.446;2022-07-04T12:42:31;0.63;;;0.60;;
11990;SDS011;6055;52.522;13.446;2022-07-04T12:44:48;1.35;;;0.70;;
11990;SDS011;6055;52.522;13.446;2022-07-04T12:47:17;1.92;;;0.80;;
11990;SDS011;6055;52.522;13.446;2022-07-04T12:49:43;3.55;;;1.35;;
11990;SDS011;6055;52.522;13.446;2022-07-04T12:52:17;1.23;;;0.93;;
11990;SDS011;6055;52.522;13.446;2022-07-04T12:54:43;1.60;;;1.00;;
11990;SDS011;6055;52.522;13.446;2022-07-04T12:57:15;1.05;;;0.88;;
11990;SDS011;6055;52.522;13.446;2022-07-04T12:59:43;1.50;;;0.70;;
11990;SDS011;6055;52.522;13.446;2022-07-04T13:02:08;3.63;;;1.00;;
11990;SDS011;6055;52.522;13.446;2022-07-04T13:04:36;1.20;;;0.80;;
11990;SDS011;6055;52.522;13.446;2022-07-04T13:07:12;1.63;;;0.98;;
11990;SDS011;6055;52.522;13.446;2022-07-04T13:09:42;0.70;;;0.70;;
11990;SDS011;6055;52.522;13.446;2022-07-04T13:12:09;1.90;;;0.80;;
11990;SDS011;6055;52.522;13.446;2022-07-04T13:14:50;1.00;;;0.70;;
11990;SDS011;6055;52.522;13.446;2022-07-04T13:17:17;1.60;;;1.23;;
11990;SDS011;6055;52.522;13.446;2022-07-04T13:19:43;0.88;;;0.80;;
11990;SDS011;6055;52.522;13.446;2022-07-04T13:22:08;1.13;;;0.73;;
11990;SDS011;6055;52.522;13.446;2022-07-04T13:24:34;1.73;;;0.90;;
11990;SDS011;6055;52.522;13.446;2022-07-04T13:27:00;1.33;;;0.52;;
11990;SDS011;6055;52.522;13.446;2022-07-04T13:29:25;4.20;;;0.80;;
11990;SDS011;6055;52.522;13.446;2022-07-04T13:31:51;4.00;;;0.80;;
11990;SDS011;6055;52.522;13.446;2022-07-04T13:34:16;4.78;;;1.00;;
11990;SDS011;6055;52.522;13.446;2022-07-04T13:36:42;0.70;;;0.70;;
11990;SDS011;6055;52.522;13.446;2022-07-04T13:39:09;0.98;;;0.77;;
11990;SDS011;6055;52.522;13.446;2022-07-04T13:41:35;1.05;;;0.75;;
11990;SDS011;6055;52.522;13.446;2022-07-04T13:44:03;0.90;;;0.70;;
11990;SDS011;6055;52.522;13.446;2022-07-04T13:46:30;1.40;;;1.00;;
11990;SDS011;6055;52.522;13.446;2022-07-04T13:48:59;1.33;;;0.75;;
11990;SDS011;6055;52.522;13.446;2022-07-04T13:51:26;1.55;;;0.98;;
11990;SDS011;6055;52.522;13.446;2022-07-04T13:53:51;1.33;;;0.73;;
11990;SDS011;6055;52.522;13.446;2022-07-04T13:56:17;1.25;;;0.70;;
11990;SDS011;6055;52.522;13.446;2022-07-04T13:58:43;1.15;;;0.63;;
11990;SDS011;6055;52.522;13.446;2022-07-04T14:01:10;1.00;;;0.70;;
11990;SDS011;6055;52.522;13.446;2022-07-04T14:03:36;1.05;;;0.73;;
11990;SDS011;6055;52.522;13.446;2022-07-04T14:06:01;0.88;;;0.65;;
11990;SDS011;6055;52.522;13.446;2022-07-04T14:08:27;1.08;;;0.70;;
11990;SDS011;6055;52.522;13.446;2022-07-04T14:10:52;0.85;;;0.70;;
11990;SDS011;6055;52.522;13.446;2022-07-04T14:13:18;0.75;;;0.68;;
11990;SDS011;6055;52.522;13.446;2022-07-04T14:15:44;1.15;;;0.70;;
11990;SDS011;6055;52.522;13.446;2022-07-04T14:18:09;1.65;;;0.80;;
11990;SDS011;6055;52.522;13.446;2022-07-04T14:20:39;0.60;;;0.60;;
11990;SDS011;6055;52.522;13.446;2022-07-04T14:23:05;1.48;;;0.60;;
11990;SDS011;6055;52.522;13.446;2022-07-04T14:25:30;1.70;;;0.90;;
11990;SDS011;6055;52.522;13.446;2022-07-04T14:27:56;1.25;;;0.80;;
11990;SDS011;6055;52.522;13.446;2022-07-04T14:30:21;1.40;;;0.60;;
11990;SDS011;6055;52.522;13.446;2022-07-04T14:32:47;3.17;;;0.70;;
11990;SDS011;6055;52.522;13.446;2022-07-04T14:35:12;1.00;;;0.77;;
11990;SDS011;6055;52.522;13.446;2022-07-04T14:37:38;0.60;;;0.60;;
11990;SDS011;6055;52.522;13.446;2022-07-04T14:40:05;1.65;;;0.75;;
11990;SDS011;6055;52.522;13.446;2022-07-04T14:42:31;0.95;;;0.70;;
11990;SDS011;6055;52.522;13.446;2022-07-04T14:44:57;2.47;;;0.70;;
11990;SDS011;6055;52.522;13.446;2022-07-04T14:47:22;0.70;;;0.70;;
11990;SDS011;6055;52.522;13.446;2022-07-04T14:49:48;0.73;;;0.73;;
11990;SDS011;6055;52.522;13.446;2022-07-04T14:52:13;0.70;;;0.70;;
11990;SDS011;6055;52.522;13.446;2022-07-04T14:54:39;1.38;;;0.80;;
11990;SDS011;6055;52.522;13.446;2022-07-04T14:57:04;1.58;;;0.90;;
11990;SDS011;6055;52.522;13.446;2022-07-04T14:59:32;0.70;;;0.68;;
11990;SDS011;6055;52.522;13.446;2022-07-04T15:02:00;1.00;;;0.70;;
11990;SDS011;6055;52.522;13.446;2022-07-04T15:04:26;0.93;;;0.60;;
11990;SDS011;6055;52.522;13.446;2022-07-04T15:06:52;1.35;;;1.10;;
11990;SDS011;6055;52.522;13.446;2022-07-04T15:09:18;1.17;;;0.90;;
11990;SDS011;6055;52.522;13.446;2022-07-04T15:11:43;2.55;;;1.08;;
11990;SDS011;6055;52.522;13.446;2022-07-04T15:14:12;1.40;;;0.88;;
11990;SDS011;6055;52.522;13.446;2022-07-04T15:16:38;1.45;;;0.88;;
11990;SDS011;6055;52.522;13.446;2022-07-04T15:19:03;2.58;;;0.88;;
11990;SDS011;6055;52.522;13.446;2022-07-04T15:21:29;1.20;;;1.00;;
11990;SDS011;6055;52.522;13.446;2022-07-04T15:24:13;1.45;;;0.82;;
11990;SDS011;6055;52.522;13.446;2022-07-04T15:26:49;1.00;;;0.90;;